• Join FlightAware (Why Join?)
  • Login
  • US Flag 
12:23PM EDT


 

Airport Tracker/Info


-or-


 

Live Flight TrackerFlight Track Log ✈ CSN3290 ✈ 03-Aug-2014 ✈ ZSPD / PVG - ZGNN / NNG

Flight Track Log - Related Links

Times and Time Zones

All times are in EDT time to prevent confusion due to time zone crossing. See the CSN3290 flight status page for this flight to view local times or setup timezone preferences in your user account.

Time Position Orientation Groundspeed Altitude Reporting Facility
EDT Latitude Longitude Course Direction KTS MPH feet Rate Location/Type
11:53AM 31.0877 121.6888 238° Southwest  Level Estimated
11:54AM 31.0325 121.5854 238° Southwest  Level Estimated
11:55AM 30.9773 121.4821 238° Southwest  Level Estimated
11:56AM 30.9219 121.3790 238° Southwest  Level Estimated
11:57AM 30.8665 121.2759 238° Southwest  Level Estimated
11:58AM 30.8110 121.1730 238° Southwest  Level Estimated
11:59AM 30.7554 121.0702 238° Southwest  Level Estimated
12:00PM 30.6998 120.9675 238° Southwest  Level Estimated
12:01PM 30.6440 120.8649 238° Southwest  Level Estimated
12:02PM 30.5882 120.7625 238° Southwest  Level Estimated
12:03PM 30.5323 120.6601 238° Southwest  Level Estimated
12:04PM 30.4763 120.5579 238° Southwest  Level Estimated
12:05PM 30.4202 120.4558 238° Southwest  Level Estimated
12:06PM 30.3641 120.3538 237° Southwest  Level Estimated
12:07PM 30.3079 120.2520 237° Southwest  Level Estimated
12:08PM 30.2516 120.1502 237° Southwest  Level Estimated
12:09PM 30.1952 120.0486 237° Southwest  Level Estimated
12:10PM 30.1387 119.9471 237° Southwest  Level Estimated
12:11PM 30.0822 119.8456 237° Southwest  Level Estimated
12:12PM 30.0256 119.7444 237° Southwest  Level Estimated
12:13PM 29.9689 119.6432 237° Southwest  Level Estimated
12:14PM 29.9121 119.5421 237° Southwest  Level Estimated
12:15PM 29.8553 119.4412 237° Southwest  Level Estimated
12:16PM 29.7983 119.3404 237° Southwest  Level Estimated
12:17PM 29.7413 119.2397 237° Southwest  Level Estimated
12:18PM 29.6843 119.1391 237° Southwest  Level Estimated
12:19PM 29.6271 119.0386 237° Southwest  Level Estimated
12:20PM 29.5699 118.9382 237° Southwest  Level Estimated
12:21PM 29.5126 118.8380 237° Southwest  Level Estimated
12:22PM 29.4552 118.7378 237° Southwest  Level Estimated
12:23PM 29.3977 118.6378 237° Southwest  Level Estimated
12:24PM 29.3381 118.5342 237° Southwest  Level Estimated
12:25PM 29.2784 118.4308 237° Southwest  Level Estimated
12:26PM 29.2186 118.3275 236° Southwest  Level Estimated
12:27PM 29.1588 118.2243 236° Southwest  Level Estimated
12:28PM 29.0988 118.1212 236° Southwest  Level Estimated
12:29PM 29.0388 118.0183 236° Southwest  Level Estimated
12:30PM 28.9787 117.9154 236° Southwest  Level Estimated
12:31PM 28.9185 117.8127 236° Southwest  Level Estimated
12:32PM 28.8582 117.7101 236° Southwest  Level Estimated
12:33PM 28.7979 117.6077 236° Southwest  Level Estimated
12:34PM 28.7375 117.5053 236° Southwest  Level Estimated
12:35PM 28.6770 117.4031 236° Southwest  Level Estimated
12:36PM 28.6164 117.3009 236° Southwest  Level Estimated
12:37PM 28.5558 117.1989 236° Southwest  Level Estimated
12:38PM 28.4951 117.0970 236° Southwest  Level Estimated
12:39PM 28.4343 116.9953 236° Southwest  Level Estimated
12:40PM 28.3734 116.8936 236° Southwest  Level Estimated
12:41PM 28.3124 116.7921 236° Southwest  Level Estimated
12:42PM 28.2514 116.6907 236° Southwest  Level Estimated
12:43PM 28.1903 116.5894 236° Southwest  Level Estimated
12:44PM 28.1292 116.4882 236° Southwest  Level Estimated
12:45PM 28.0679 116.3871 236° Southwest  Level Estimated
12:46PM 28.0066 116.2861 235° Southwest  Level Estimated
12:47PM 27.9452 116.1853 235° Southwest  Level Estimated
12:48PM 27.8837 116.0846 235° Southwest  Level Estimated
12:49PM 27.8222 115.9840 235° Southwest  Level Estimated
12:50PM 27.7606 115.8835 235° Southwest  Level Estimated
12:51PM 27.6989 115.7831 235° Southwest  Level Estimated
12:52PM 27.6371 115.6828 235° Southwest  Level Estimated
12:53PM 27.5753 115.5826 235° Southwest  Level Estimated
12:54PM 27.5134 115.4826 235° Southwest  Level Estimated
12:55PM 27.4514 115.3827 235° Southwest  Level Estimated
12:56PM 27.3894 115.2829 235° Southwest  Level Estimated
12:57PM 27.3273 115.1831 235° Southwest  Level Estimated
12:58PM 27.2651 115.0835 235° Southwest  Level Estimated
12:59PM 27.2028 114.9841 235° Southwest  Level Estimated
01:00PM 27.1405 114.8847 235° Southwest  Level Estimated
01:01PM 27.0781 114.7854 235° Southwest  Level Estimated
01:02PM 27.0156 114.6863 235° Southwest  Level Estimated
01:03PM 26.9531 114.5872 235° Southwest  Level Estimated
01:04PM 26.8905 114.4883 235° Southwest  Level Estimated
01:05PM 26.8278 114.3895 235° Southwest  Level Estimated
01:06PM 26.7651 114.2908 235° Southwest  Level Estimated
01:07PM 26.7023 114.1921 235° Southwest  Level Estimated
01:08PM 26.6394 114.0937 234° Southwest  Level Estimated
01:09PM 26.5764 113.9953 234° Southwest  Level Estimated
01:10PM 26.5134 113.8970 234° Southwest  Level Estimated
01:11PM 26.4503 113.7988 234° Southwest  Level Estimated
01:12PM 26.3872 113.7008 234° Southwest  Level Estimated
01:13PM 26.3240 113.6028 234° Southwest  Level Estimated
01:14PM 26.2607 113.5050 234° Southwest  Level Estimated
01:15PM 26.1974 113.4072 234° Southwest  Level Estimated
01:16PM 26.1339 113.3096 234° Southwest  Level Estimated
01:17PM 26.0705 113.2120 234° Southwest  Level Estimated
01:18PM 26.0069 113.1146 234° Southwest  Level Estimated
01:19PM 25.9433 113.0173 234° Southwest  Level Estimated
01:20PM 25.8796 112.9201 234° Southwest  Level Estimated
01:21PM 25.8159 112.8230 234° Southwest  Level Estimated
01:22PM 25.7521 112.7260 234° Southwest  Level Estimated
01:23PM 25.6882 112.6291 234° Southwest  Level Estimated
01:24PM 25.6243 112.5323 234° Southwest  Level Estimated
01:25PM 25.5603 112.4356 234° Southwest  Level Estimated
01:26PM 25.4962 112.3390 234° Southwest  Level Estimated
01:27PM 25.4321 112.2425 234° Southwest  Level Estimated
01:28PM 25.3679 112.1461 234° Southwest  Level Estimated
01:29PM 25.3037 112.0498 234° Southwest  Level Estimated
01:30PM 25.2394 111.9537 234° Southwest  Level Estimated
01:31PM 25.1750 111.8576 233° Southwest  Level Estimated
01:32PM 25.1106 111.7616 233° Southwest  Level Estimated
01:33PM 25.0461 111.6657 233° Southwest  Level Estimated
01:34PM 24.9815 111.5699 233° Southwest  Level Estimated
01:35PM 24.9169 111.4743 233° Southwest  Level Estimated
01:36PM 24.8522 111.3787 233° Southwest  Level Estimated
01:37PM 24.7875 111.2832 233° Southwest  Level Estimated
01:38PM 24.7227 111.1879 233° Southwest  Level Estimated
01:39PM 24.6578 111.0926 233° Southwest  Level Estimated
01:40PM 24.5929 110.9974 233° Southwest  Level Estimated
01:41PM 24.5279 110.9023 233° Southwest  Level Estimated
01:42PM 24.4629 110.8073 233° Southwest  Level Estimated
01:43PM 24.3978 110.7125 233° Southwest  Level Estimated
01:44PM 24.3326 110.6177 233° Southwest  Level Estimated
01:45PM 24.2674 110.5230 233° Southwest  Level Estimated
01:46PM 24.2021 110.4284 233° Southwest  Level Estimated
01:47PM 24.1368 110.3339 233° Southwest  Level Estimated
01:48PM 24.0714 110.2395 233° Southwest  Level Estimated
01:49PM 24.0059 110.1452 233° Southwest  Level Estimated
01:50PM 23.9404 110.0510 233° Southwest  Level Estimated
01:51PM 23.8749 109.9569 233° Southwest  Level Estimated
01:52PM 23.8092 109.8629 233° Southwest  Level Estimated
01:53PM 23.7436 109.7690 233° Southwest  Level Estimated
01:54PM 23.6778 109.6752 233° Southwest  Level Estimated
01:55PM 23.6120 109.5814 233° Southwest  Level Estimated
01:56PM 23.5462 109.4878 233° Southwest  Level Estimated
01:57PM 23.4803 109.3943 232° Southwest  Level Estimated
01:58PM 23.4143 109.3008 232° Southwest  Level Estimated
01:59PM 23.3483 109.2075 232° Southwest  Level Estimated
02:00PM 23.2822 109.1142 232° Southwest  Level Estimated
02:01PM 23.2161 109.0210 232° Southwest  Level Estimated
02:02PM 23.1499 108.9279 232° Southwest  Level Estimated
02:03PM 23.0837 108.8350 232° Southwest  Level Estimated
02:04PM 23.0174 108.7421 232° Southwest  Level Estimated
02:05PM 22.9510 108.6493 232° Southwest  Level Estimated
02:06PM 22.8846 108.5566 232° Southwest  Level Estimated
02:07PM 22.8182 108.4640 232° Southwest  Level Estimated
02:08PM 22.7517 108.3714 232° Southwest  Level Estimated
02:09PM 22.6851 108.2790 232° Southwest  Level Estimated
02:10PM 22.6185 108.1866 232° Southwest  Level Estimated
02:11PM 22.6083 108.1724 232° Southwest  Level Estimated
02:12PM 22.6083 108.1724 North  Level Estimated
02:13PM 22.6083 108.1724 North  Level Estimated
02:14PM 22.6083 108.1724 North  Level Estimated
02:15PM 22.6083 108.1724 North  Level Estimated
02:16PM 22.6083 108.1724 North  Level Estimated
02:17PM 22.6083 108.1724 North  Level Estimated
02:18PM 22.6083 108.1724 North  Level Estimated
02:19PM 22.6083 108.1724 North  Level Estimated
02:20PM 22.6083 108.1724 North  Level Estimated
02:21PM 22.6083 108.1724 North  Level Estimated
02:22PM 22.6083 108.1724 North  Level Estimated
02:23PM 22.6083 108.1724 North  Level Estimated
02:24PM 22.6083 108.1724 North  Level Estimated
02:25PM 22.6083 108.1724 North  Level Estimated
02:26PM 22.6083 108.1724 North  Level Estimated
02:27PM 22.6083 108.1724 North  Level Estimated
02:28PM 22.6083 108.1724 North  Level Estimated
02:29PM 22.6083 108.1724 North  Level Estimated
02:30PM 22.6083 108.1724 North  Level Estimated
02:31PM 22.6083 108.1724 North  Level Estimated
02:32PM 22.6083 108.1724 North  Level Estimated
02:33PM 22.6083 108.1724 North  Level Estimated
02:34PM 22.6083 108.1724 North  Level Estimated
02:35PM 22.6083 108.1724 North  Level Estimated
02:36PM 22.6083 108.1724 North  Level Estimated